sensor_id;sensor_type;location;lat;lon;timestamp;temperature;humidity
41262;DHT22;29629;52.532;13.352;2023-04-29T00:01:15;12.40;99.90
41262;DHT22;29629;52.532;13.352;2023-04-29T00:03:42;12.40;99.90
41262;DHT22;29629;52.532;13.352;2023-04-29T00:06:09;12.50;99.90
41262;DHT22;29629;52.532;13.352;2023-04-29T00:08:36;12.40;99.90
41262;DHT22;29629;52.532;13.352;2023-04-29T00:11:03;12.40;99.90
41262;DHT22;29629;52.532;13.352;2023-04-29T00:13:30;12.40;99.90
41262;DHT22;29629;52.532;13.352;2023-04-29T00:15:57;12.40;99.90
41262;DHT22;29629;52.532;13.352;2023-04-29T00:18:26;12.40;99.90
41262;DHT22;29629;52.532;13.352;2023-04-29T00:20:53;12.40;99.90
41262;DHT22;29629;52.532;13.352;2023-04-29T00:23:20;12.40;99.90
41262;DHT22;29629;52.532;13.352;2023-04-29T00:25:46;12.40;99.90
41262;DHT22;29629;52.532;13.352;2023-04-29T00:28:13;12.40;99.90
41262;DHT22;29629;52.532;13.352;2023-04-29T00:30:40;12.30;99.90
41262;DHT22;29629;52.532;13.352;2023-04-29T00:33:07;12.30;99.90
41262;DHT22;29629;52.532;13.352;2023-04-29T00:35:36;12.30;99.90
41262;DHT22;29629;52.532;13.352;2023-04-29T00:38:02;12.30;99.90
41262;DHT22;29629;52.532;13.352;2023-04-29T00:40:30;12.30;99.90
41262;DHT22;29629;52.532;13.352;2023-04-29T00:42:57;12.30;99.90
41262;DHT22;29629;52.532;13.352;2023-04-29T00:45:24;12.30;99.90
41262;DHT22;29629;52.532;13.352;2023-04-29T00:47:52;12.30;99.90
41262;DHT22;29629;52.532;13.352;2023-04-29T00:50:19;12.20;99.90
41262;DHT22;29629;52.532;13.352;2023-04-29T00:52:48;12.30;99.90
41262;DHT22;29629;52.532;13.352;2023-04-29T00:55:16;12.30;99.90
41262;DHT22;29629;52.532;13.352;2023-04-29T00:57:44;12.30;99.90
41262;DHT22;29629;52.532;13.352;2023-04-29T01:00:14;12.30;99.90
41262;DHT22;29629;52.532;13.352;2023-04-29T01:02:41;12.30;99.90
41262;DHT22;29629;52.532;13.352;2023-04-29T01:05:09;12.30;99.90
41262;DHT22;29629;52.532;13.352;2023-04-29T01:07:40;12.30;99.90
41262;DHT22;29629;52.532;13.352;2023-04-29T01:10:14;12.30;99.90
41262;DHT22;29629;52.532;13.352;2023-04-29T01:12:52;12.00;99.90
41262;DHT22;29629;52.532;13.352;2023-04-29T01:15:21;11.50;99.90
41262;DHT22;29629;52.532;13.352;2023-04-29T01:17:50;11.30;99.90
41262;DHT22;29629;52.532;13.352;2023-04-29T01:20:21;11.10;99.90
41262;DHT22;29629;52.532;13.352;2023-04-29T01:22:49;11.00;99.90
41262;DHT22;29629;52.532;13.352;2023-04-29T01:25:17;11.00;99.90
41262;DHT22;29629;52.532;13.352;2023-04-29T01:27:51;11.00;99.90
41262;DHT22;29629;52.532;13.352;2023-04-29T01:30:31;10.90;99.90
41262;DHT22;29629;52.532;13.352;2023-04-29T01:33:05;11.00;99.90
41262;DHT22;29629;52.532;13.352;2023-04-29T01:35:43;11.00;99.90
41262;DHT22;29629;52.532;13.352;2023-04-29T01:38:17;11.20;99.90
41262;DHT22;29629;52.532;13.352;2023-04-29T01:40:49;11.40;99.90
41262;DHT22;29629;52.532;13.352;2023-04-29T01:43:22;11.40;99.90
41262;DHT22;29629;52.532;13.352;2023-04-29T01:45:52;11.40;99.90
41262;DHT22;29629;52.532;13.352;2023-04-29T01:48:21;11.50;99.90
41262;DHT22;29629;52.532;13.352;2023-04-29T01:50:48;11.40;99.90
41262;DHT22;29629;52.532;13.352;2023-04-29T01:53:15;11.30;99.90
41262;DHT22;29629;52.532;13.352;2023-04-29T01:55:42;11.30;99.90
41262;DHT22;29629;52.532;13.352;2023-04-29T01:58:10;11.30;99.90
41262;DHT22;29629;52.532;13.352;2023-04-29T02:00:37;11.40;99.90
41262;DHT22;29629;52.532;13.352;2023-04-29T02:03:04;11.40;99.90
41262;DHT22;29629;52.532;13.352;2023-04-29T02:05:31;11.40;99.90
41262;DHT22;29629;52.532;13.352;2023-04-29T02:07:59;11.40;99.90
41262;DHT22;29629;52.532;13.352;2023-04-29T02:10:26;11.30;99.90
41262;DHT22;29629;52.532;13.352;2023-04-29T02:12:53;11.30;99.90
41262;DHT22;29629;52.532;13.352;2023-04-29T02:15:22;11.30;99.90
41262;DHT22;29629;52.532;13.352;2023-04-29T02:17:51;11.30;99.90
41262;DHT22;29629;52.532;13.352;2023-04-29T02:20:18;11.30;99.90
41262;DHT22;29629;52.532;13.352;2023-04-29T02:22:45;11.40;99.90
41262;DHT22;29629;52.532;13.352;2023-04-29T02:25:12;11.40;99.90
41262;DHT22;29629;52.532;13.352;2023-04-29T02:27:39;11.40;99.90
41262;DHT22;29629;52.532;13.352;2023-04-29T02:30:07;11.40;99.90
41262;DHT22;29629;52.532;13.352;2023-04-29T02:32:35;11.40;99.90
41262;DHT22;29629;52.532;13.352;2023-04-29T02:35:04;11.30;99.90
41262;DHT22;29629;52.532;13.352;2023-04-29T02:37:31;11.30;99.90
41262;DHT22;29629;52.532;13.352;2023-04-29T02:39:58;11.40;99.90
41262;DHT22;29629;52.532;13.352;2023-04-29T02:42:26;11.30;99.90
41262;DHT22;29629;52.532;13.352;2023-04-29T02:44:53;11.30;99.90
41262;DHT22;29629;52.532;13.352;2023-04-29T02:47:20;11.30;99.90
41262;DHT22;29629;52.532;13.352;2023-04-29T02:49:49;11.40;99.90
41262;DHT22;29629;52.532;13.352;2023-04-29T02:52:16;11.40;99.90
41262;DHT22;29629;52.532;13.352;2023-04-29T02:54:43;11.30;99.90
41262;DHT22;29629;52.532;13.352;2023-04-29T02:57:10;11.30;99.90
41262;DHT22;29629;52.532;13.352;2023-04-29T02:59:37;11.30;99.90
41262;DHT22;29629;52.532;13.352;2023-04-29T03:02:04;11.30;99.90
41262;DHT22;29629;52.532;13.352;2023-04-29T03:04:31;11.30;99.90
41262;DHT22;29629;52.532;13.352;2023-04-29T03:07:00;11.20;99.90
41262;DHT22;29629;52.532;13.352;2023-04-29T03:09:27;11.20;99.90
41262;DHT22;29629;52.532;13.352;2023-04-29T03:11:54;11.30;99.90
41262;DHT22;29629;52.532;13.352;2023-04-29T03:14:21;11.20;99.90
41262;DHT22;29629;52.532;13.352;2023-04-29T03:16:47;11.20;99.90
41262;DHT22;29629;52.532;13.352;2023-04-29T03:19:15;11.20;99.90
41262;DHT22;29629;52.532;13.352;2023-04-29T03:21:42;11.20;99.90
41262;DHT22;29629;52.532;13.352;2023-04-29T03:24:11;11.30;99.90
41262;DHT22;29629;52.532;13.352;2023-04-29T03:26:38;11.20;99.90
41262;DHT22;29629;52.532;13.352;2023-04-29T03:29:06;11.30;99.90
41262;DHT22;29629;52.532;13.352;2023-04-29T03:31:33;11.20;99.90
41262;DHT22;29629;52.532;13.352;2023-04-29T03:34:00;11.30;99.90
41262;DHT22;29629;52.532;13.352;2023-04-29T03:36:27;11.20;99.90
41262;DHT22;29629;52.532;13.352;2023-04-29T03:38:54;11.30;99.90
41262;DHT22;29629;52.532;13.352;2023-04-29T03:41:23;11.30;99.90
41262;DHT22;29629;52.532;13.352;2023-04-29T03:43:50;11.30;99.90
41262;DHT22;29629;52.532;13.352;2023-04-29T03:46:17;11.40;99.90
41262;DHT22;29629;52.532;13.352;2023-04-29T03:48:44;11.30;99.90
41262;DHT22;29629;52.532;13.352;2023-04-29T03:51:10;11.40;99.90
41262;DHT22;29629;52.532;13.352;2023-04-29T03:53:38;11.50;99.90
41262;DHT22;29629;52.532;13.352;2023-04-29T03:56:06;11.50;99.90
41262;DHT22;29629;52.532;13.352;2023-04-29T03:58:34;11.50;99.90
41262;DHT22;29629;52.532;13.352;2023-04-29T04:01:01;11.50;99.90
41262;DHT22;29629;52.532;13.352;2023-04-29T04:03:28;11.50;99.90
41262;DHT22;29629;52.532;13.352;2023-04-29T04:05:55;11.50;99.90
41262;DHT22;29629;52.532;13.352;2023-04-29T04:08:22;11.50;99.90
41262;DHT22;29629;52.532;13.352;2023-04-29T04:10:49;11.60;99.90
41262;DHT22;29629;52.532;13.352;2023-04-29T04:13:16;11.60;99.90
41262;DHT22;29629;52.532;13.352;2023-04-29T04:15:49;11.60;99.90
41262;DHT22;29629;52.532;13.352;2023-04-29T04:18:16;11.60;99.90
41262;DHT22;29629;52.532;13.352;2023-04-29T04:20:43;11.60;99.90
41262;DHT22;29629;52.532;13.352;2023-04-29T04:23:10;11.70;99.90
41262;DHT22;29629;52.532;13.352;2023-04-29T04:25:37;11.60;99.90
41262;DHT22;29629;52.532;13.352;2023-04-29T04:28:04;11.60;99.90
41262;DHT22;29629;52.532;13.352;2023-04-29T04:30:31;11.70;99.90
41262;DHT22;29629;52.532;13.352;2023-04-29T04:33:02;11.80;99.90
41262;DHT22;29629;52.532;13.352;2023-04-29T04:35:30;11.80;99.90
41262;DHT22;29629;52.532;13.352;2023-04-29T04:37:57;11.80;99.90
41262;DHT22;29629;52.532;13.352;2023-04-29T04:40:24;11.80;99.90
41262;DHT22;29629;52.532;13.352;2023-04-29T04:42:52;11.90;99.90
41262;DHT22;29629;52.532;13.352;2023-04-29T04:45:19;11.90;99.90
41262;DHT22;29629;52.532;13.352;2023-04-29T04:47:46;11.90;99.90
41262;DHT22;29629;52.532;13.352;2023-04-29T04:50:14;11.90;99.90
41262;DHT22;29629;52.532;13.352;2023-04-29T04:52:41;11.90;99.90
41262;DHT22;29629;52.532;13.352;2023-04-29T04:55:09;12.00;99.90
41262;DHT22;29629;52.532;13.352;2023-04-29T04:57:36;12.00;99.90
41262;DHT22;29629;52.532;13.352;2023-04-29T05:00:04;11.80;99.90
41262;DHT22;29629;52.532;13.352;2023-04-29T05:02:31;11.80;99.90
41262;DHT22;29629;52.532;13.352;2023-04-29T05:04:58;11.90;99.90
41262;DHT22;29629;52.532;13.352;2023-04-29T05:07:26;11.90;99.90
41262;DHT22;29629;52.532;13.352;2023-04-29T05:09:53;11.80;99.90
41262;DHT22;29629;52.532;13.352;2023-04-29T05:12:20;11.80;99.90
41262;DHT22;29629;52.532;13.352;2023-04-29T05:14:52;11.70;99.90
41262;DHT22;29629;52.532;13.352;2023-04-29T05:17:18;11.80;99.90
41262;DHT22;29629;52.532;13.352;2023-04-29T05:19:45;11.80;99.90
41262;DHT22;29629;52.532;13.352;2023-04-29T05:22:12;11.80;99.90
41262;DHT22;29629;52.532;13.352;2023-04-29T05:24:41;11.80;99.90
41262;DHT22;29629;52.532;13.352;2023-04-29T05:27:08;11.90;99.90
41262;DHT22;29629;52.532;13.352;2023-04-29T05:29:34;12.00;99.90
41262;DHT22;29629;52.532;13.352;2023-04-29T05:32:02;12.00;99.90
41262;DHT22;29629;52.532;13.352;2023-04-29T05:34:29;11.90;99.90
41262;DHT22;29629;52.532;13.352;2023-04-29T05:36:56;12.00;99.90
41262;DHT22;29629;52.532;13.352;2023-04-29T05:39:23;12.00;99.90
41262;DHT22;29629;52.532;13.352;2023-04-29T05:41:52;12.10;99.90
41262;DHT22;29629;52.532;13.352;2023-04-29T05:44:19;12.10;99.90
41262;DHT22;29629;52.532;13.352;2023-04-29T05:46:47;12.10;99.90
41262;DHT22;29629;52.532;13.352;2023-04-29T05:49:16;12.20;99.90
41262;DHT22;29629;52.532;13.352;2023-04-29T05:51:43;12.20;99.90
41262;DHT22;29629;52.532;13.352;2023-04-29T05:54:09;12.20;99.90
41262;DHT22;29629;52.532;13.352;2023-04-29T05:56:36;12.20;99.90
41262;DHT22;29629;52.532;13.352;2023-04-29T05:59:05;12.20;99.90
41262;DHT22;29629;52.532;13.352;2023-04-29T06:01:32;12.30;99.90
41262;DHT22;29629;52.532;13.352;2023-04-29T06:03:58;12.30;99.90
41262;DHT22;29629;52.532;13.352;2023-04-29T06:06:25;12.30;99.90
41262;DHT22;29629;52.532;13.352;2023-04-29T06:08:53;12.20;99.90
41262;DHT22;29629;52.532;13.352;2023-04-29T06:11:20;12.20;99.90
41262;DHT22;29629;52.532;13.352;2023-04-29T06:13:47;12.30;99.90
41262;DHT22;29629;52.532;13.352;2023-04-29T06:16:15;12.30;99.90
41262;DHT22;29629;52.532;13.352;2023-04-29T06:18:42;12.30;99.90
41262;DHT22;29629;52.532;13.352;2023-04-29T06:21:09;12.30;99.90
41262;DHT22;29629;52.532;13.352;2023-04-29T06:23:36;12.40;99.90
41262;DHT22;29629;52.532;13.352;2023-04-29T06:26:03;12.40;99.90
41262;DHT22;29629;52.532;13.352;2023-04-29T06:28:29;12.50;99.90
41262;DHT22;29629;52.532;13.352;2023-04-29T06:30:56;12.50;99.90
41262;DHT22;29629;52.532;13.352;2023-04-29T06:33:25;12.50;99.90
41262;DHT22;29629;52.532;13.352;2023-04-29T06:35:52;12.40;99.90
41262;DHT22;29629;52.532;13.352;2023-04-29T06:38:19;12.40;99.90
41262;DHT22;29629;52.532;13.352;2023-04-29T06:40:46;12.40;99.90
41262;DHT22;29629;52.532;13.352;2023-04-29T06:43:13;12.40;99.90
41262;DHT22;29629;52.532;13.352;2023-04-29T06:45:40;12.50;99.90
41262;DHT22;29629;52.532;13.352;2023-04-29T06:48:07;12.50;99.90
41262;DHT22;29629;52.532;13.352;2023-04-29T06:50:35;12.50;99.90
41262;DHT22;29629;52.532;13.352;2023-04-29T06:53:02;12.40;99.90
41262;DHT22;29629;52.532;13.352;2023-04-29T06:55:29;12.50;99.90
41262;DHT22;29629;52.532;13.352;2023-04-29T06:57:56;12.50;99.90
41262;DHT22;29629;52.532;13.352;2023-04-29T07:00:23;12.50;99.90
41262;DHT22;29629;52.532;13.352;2023-04-29T07:02:50;12.50;99.90
41262;DHT22;29629;52.532;13.352;2023-04-29T07:05:17;12.50;99.90
41262;DHT22;29629;52.532;13.352;2023-04-29T07:07:45;12.50;99.90
41262;DHT22;29629;52.532;13.352;2023-04-29T07:10:12;12.40;99.90
41262;DHT22;29629;52.532;13.352;2023-04-29T07:12:39;12.40;99.90
41262;DHT22;29629;52.532;13.352;2023-04-29T07:15:07;12.40;99.90
41262;DHT22;29629;52.532;13.352;2023-04-29T07:17:34;12.40;99.90
41262;DHT22;29629;52.532;13.352;2023-04-29T07:20:00;12.30;99.90
41262;DHT22;29629;52.532;13.352;2023-04-29T07:22:28;12.30;99.90
41262;DHT22;29629;52.532;13.352;2023-04-29T07:24:56;12.30;99.90
41262;DHT22;29629;52.532;13.352;2023-04-29T07:27:23;12.30;99.90
41262;DHT22;29629;52.532;13.352;2023-04-29T07:29:50;12.40;99.90
41262;DHT22;29629;52.532;13.352;2023-04-29T07:32:17;12.30;99.90
41262;DHT22;29629;52.532;13.352;2023-04-29T07:34:44;12.20;99.90
41262;DHT22;29629;52.532;13.352;2023-04-29T07:37:12;12.30;99.90
41262;DHT22;29629;52.532;13.352;2023-04-29T07:39:39;12.30;99.90
41262;DHT22;29629;52.532;13.352;2023-04-29T07:42:08;12.20;99.90
41262;DHT22;29629;52.532;13.352;2023-04-29T07:44:35;12.30;99.90
41262;DHT22;29629;52.532;13.352;2023-04-29T07:47:02;12.20;99.90
41262;DHT22;29629;52.532;13.352;2023-04-29T07:49:29;12.30;99.90
41262;DHT22;29629;52.532;13.352;2023-04-29T07:51:56;12.40;99.90
41262;DHT22;29629;52.532;13.352;2023-04-29T07:54:23;12.40;99.90
41262;DHT22;29629;52.532;13.352;2023-04-29T07:56:50;12.30;99.90
41262;DHT22;29629;52.532;13.352;2023-04-29T07:59:19;12.30;99.90
41262;DHT22;29629;52.532;13.352;2023-04-29T08:01:46;12.20;99.90
41262;DHT22;29629;52.532;13.352;2023-04-29T08:04:12;12.30;99.90
41262;DHT22;29629;52.532;13.352;2023-04-29T08:06:39;12.20;99.90
41262;DHT22;29629;52.532;13.352;2023-04-29T08:09:07;12.20;99.90
41262;DHT22;29629;52.532;13.352;2023-04-29T08:11:34;12.10;99.90
41262;DHT22;29629;52.532;13.352;2023-04-29T08:14:01;12.10;99.90
41262;DHT22;29629;52.532;13.352;2023-04-29T08:16:29;12.10;99.90
41262;DHT22;29629;52.532;13.352;2023-04-29T08:18:56;12.10;99.90
41262;DHT22;29629;52.532;13.352;2023-04-29T08:21:23;12.10;99.90
41262;DHT22;29629;52.532;13.352;2023-04-29T08:23:50;12.20;99.90
41262;DHT22;29629;52.532;13.352;2023-04-29T08:26:18;12.10;99.90
41262;DHT22;29629;52.532;13.352;2023-04-29T08:28:45;12.10;99.90
41262;DHT22;29629;52.532;13.352;2023-04-29T08:31:16;12.10;99.90
41262;DHT22;29629;52.532;13.352;2023-04-29T08:33:44;12.10;99.90
41262;DHT22;29629;52.532;13.352;2023-04-29T08:36:11;12.10;99.90
41262;DHT22;29629;52.532;13.352;2023-04-29T08:38:38;12.10;99.90
41262;DHT22;29629;52.532;13.352;2023-04-29T08:41:06;12.10;99.90
41262;DHT22;29629;52.532;13.352;2023-04-29T08:43:34;12.10;99.90
41262;DHT22;29629;52.532;13.352;2023-04-29T08:46:02;12.20;99.90
41262;DHT22;29629;52.532;13.352;2023-04-29T08:48:29;12.00;99.90
41262;DHT22;29629;52.532;13.352;2023-04-29T08:50:58;12.10;99.90
41262;DHT22;29629;52.532;13.352;2023-04-29T08:53:26;12.20;99.90
41262;DHT22;29629;52.532;13.352;2023-04-29T08:55:54;12.20;99.90
41262;DHT22;29629;52.532;13.352;2023-04-29T08:58:21;12.30;99.90
41262;DHT22;29629;52.532;13.352;2023-04-29T09:00:49;12.30;99.90
41262;DHT22;29629;52.532;13.352;2023-04-29T09:03:19;12.40;99.90
41262;DHT22;29629;52.532;13.352;2023-04-29T09:05:50;12.40;99.90
41262;DHT22;29629;52.532;13.352;2023-04-29T09:08:20;12.30;99.90
41262;DHT22;29629;52.532;13.352;2023-04-29T09:10:49;12.30;99.90
41262;DHT22;29629;52.532;13.352;2023-04-29T09:13:23;12.20;99.90
41262;DHT22;29629;52.532;13.352;2023-04-29T09:15:51;12.30;99.90
41262;DHT22;29629;52.532;13.352;2023-04-29T09:18:46;12.20;99.90
41262;DHT22;29629;52.532;13.352;2023-04-29T09:21:18;12.20;99.90
41262;DHT22;29629;52.532;13.352;2023-04-29T09:23:47;12.30;99.90
41262;DHT22;29629;52.532;13.352;2023-04-29T09:26:18;12.20;99.90
41262;DHT22;29629;52.532;13.352;2023-04-29T09:28:45;12.30;99.90
41262;DHT22;29629;52.532;13.352;2023-04-29T09:31:14;12.30;99.90
41262;DHT22;29629;52.532;13.352;2023-04-29T09:33:51;12.20;99.90
41262;DHT22;29629;52.532;13.352;2023-04-29T09:36:36;12.10;99.90
41262;DHT22;29629;52.532;13.352;2023-04-29T09:39:05;12.00;99.90
41262;DHT22;29629;52.532;13.352;2023-04-29T09:44:24;11.80;99.90
41262;DHT22;29629;52.532;13.352;2023-04-29T09:47:04;11.90;99.90
41262;DHT22;29629;52.532;13.352;2023-04-29T09:49:33;11.90;99.90
41262;DHT22;29629;52.532;13.352;2023-04-29T09:52:03;12.00;99.90
41262;DHT22;29629;52.532;13.352;2023-04-29T09:54:33;12.00;99.90
41262;DHT22;29629;52.532;13.352;2023-04-29T09:57:01;12.10;99.90
41262;DHT22;29629;52.532;13.352;2023-04-29T09:59:31;12.10;99.90
41262;DHT22;29629;52.532;13.352;2023-04-29T10:02:01;12.10;99.90
41262;DHT22;29629;52.532;13.352;2023-04-29T10:04:32;12.10;99.90
41262;DHT22;29629;52.532;13.352;2023-04-29T10:07:02;12.20;99.90
41262;DHT22;29629;52.532;13.352;2023-04-29T10:09:29;12.20;99.90
41262;DHT22;29629;52.532;13.352;2023-04-29T10:11:59;12.20;99.90
41262;DHT22;29629;52.532;13.352;2023-04-29T10:14:28;12.10;99.90
41262;DHT22;29629;52.532;13.352;2023-04-29T10:17:01;12.20;99.90
41262;DHT22;29629;52.532;13.352;2023-04-29T10:19:33;12.20;99.90
41262;DHT22;29629;52.532;13.352;2023-04-29T10:22:06;12.30;99.90
41262;DHT22;29629;52.532;13.352;2023-04-29T10:24:35;12.10;99.90
41262;DHT22;29629;52.532;13.352;2023-04-29T10:27:06;12.20;99.90
41262;DHT22;29629;52.532;13.352;2023-04-29T10:29:34;12.20;99.90
41262;DHT22;29629;52.532;13.352;2023-04-29T10:32:03;12.20;99.90
41262;DHT22;29629;52.532;13.352;2023-04-29T10:34:33;12.30;99.90
41262;DHT22;29629;52.532;13.352;2023-04-29T10:37:03;12.40;99.90
41262;DHT22;29629;52.532;13.352;2023-04-29T10:39:34;12.50;99.90
41262;DHT22;29629;52.532;13.352;2023-04-29T10:42:06;12.60;99.90
41262;DHT22;29629;52.532;13.352;2023-04-29T10:47:39;12.70;99.90
41262;DHT22;29629;52.532;13.352;2023-04-29T10:50:06;12.70;99.90
41262;DHT22;29629;52.532;13.352;2023-04-29T10:52:50;12.70;99.90
41262;DHT22;29629;52.532;13.352;2023-04-29T10:55:17;12.70;99.90
41262;DHT22;29629;52.532;13.352;2023-04-29T10:57:45;12.60;99.90
41262;DHT22;29629;52.532;13.352;2023-04-29T11:00:20;12.60;99.90
41262;DHT22;29629;52.532;13.352;2023-04-29T11:02:48;12.80;99.90
41262;DHT22;29629;52.532;13.352;2023-04-29T11:05:14;13.00;99.90
41262;DHT22;29629;52.532;13.352;2023-04-29T11:07:44;13.00;99.90
41262;DHT22;29629;52.532;13.352;2023-04-29T11:10:12;13.00;99.90
41262;DHT22;29629;52.532;13.352;2023-04-29T11:12:39;12.90;99.90
41262;DHT22;29629;52.532;13.352;2023-04-29T11:15:08;12.90;99.90
41262;DHT22;29629;52.532;13.352;2023-04-29T11:17:36;12.90;99.90
41262;DHT22;29629;52.532;13.352;2023-04-29T11:20:04;12.80;99.90
41262;DHT22;29629;52.532;13.352;2023-04-29T11:22:35;13.00;99.90
41262;DHT22;29629;52.532;13.352;2023-04-29T11:25:04;13.30;99.90
41262;DHT22;29629;52.532;13.352;2023-04-29T11:27:32;13.60;99.90
41262;DHT22;29629;52.532;13.352;2023-04-29T11:30:01;13.80;99.90
41262;DHT22;29629;52.532;13.352;2023-04-29T11:32:32;14.00;99.90
41262;DHT22;29629;52.532;13.352;2023-04-29T11:35:09;13.90;99.90
41262;DHT22;29629;52.532;13.352;2023-04-29T11:37:38;13.90;99.90
41262;DHT22;29629;52.532;13.352;2023-04-29T11:40:06;14.10;99.90
41262;DHT22;29629;52.532;13.352;2023-04-29T11:42:33;14.20;99.90
41262;DHT22;29629;52.532;13.352;2023-04-29T11:45:01;14.20;99.90
41262;DHT22;29629;52.532;13.352;2023-04-29T11:47:29;14.20;99.90
41262;DHT22;29629;52.532;13.352;2023-04-29T11:50:05;14.30;99.90
41262;DHT22;29629;52.532;13.352;2023-04-29T11:52:35;14.30;99.90
41262;DHT22;29629;52.532;13.352;2023-04-29T11:55:03;14.30;99.90
41262;DHT22;29629;52.532;13.352;2023-04-29T11:57:31;14.30;99.90
41262;DHT22;29629;52.532;13.352;2023-04-29T11:59:59;14.30;99.90
41262;DHT22;29629;52.532;13.352;2023-04-29T12:02:30;14.30;99.90
41262;DHT22;29629;52.532;13.352;2023-04-29T12:04:58;14.30;99.90
41262;DHT22;29629;52.532;13.352;2023-04-29T12:07:28;14.30;99.90
41262;DHT22;29629;52.532;13.352;2023-04-29T12:09:57;14.20;99.90
41262;DHT22;29629;52.532;13.352;2023-04-29T12:12:25;13.90;99.90
41262;DHT22;29629;52.532;13.352;2023-04-29T12:14:54;13.80;99.90
41262;DHT22;29629;52.532;13.352;2023-04-29T12:17:22;13.80;99.90
41262;DHT22;29629;52.532;13.352;2023-04-29T12:19:50;13.80;99.90
41262;DHT22;29629;52.532;13.352;2023-04-29T12:22:18;13.80;99.90
41262;DHT22;29629;52.532;13.352;2023-04-29T12:24:48;13.60;99.90
41262;DHT22;29629;52.532;13.352;2023-04-29T12:27:19;13.70;99.90
41262;DHT22;29629;52.532;13.352;2023-04-29T12:29:48;13.70;99.90
41262;DHT22;29629;52.532;13.352;2023-04-29T12:32:21;13.80;99.90
41262;DHT22;29629;52.532;13.352;2023-04-29T12:34:50;13.90;99.90
41262;DHT22;29629;52.532;13.352;2023-04-29T12:37:17;14.20;99.90
41262;DHT22;29629;52.532;13.352;2023-04-29T12:39:44;14.40;99.90
41262;DHT22;29629;52.532;13.352;2023-04-29T12:42:15;14.30;99.90
41262;DHT22;29629;52.532;13.352;2023-04-29T12:44:44;14.40;99.90
41262;DHT22;29629;52.532;13.352;2023-04-29T12:47:12;14.50;99.90
41262;DHT22;29629;52.532;13.352;2023-04-29T12:49:41;14.60;99.90
41262;DHT22;29629;52.532;13.352;2023-04-29T12:52:08;14.70;99.90
41262;DHT22;29629;52.532;13.352;2023-04-29T12:54:35;14.70;99.90
41262;DHT22;29629;52.532;13.352;2023-04-29T12:57:02;14.90;99.90
41262;DHT22;29629;52.532;13.352;2023-04-29T12:59:31;15.00;99.90
41262;DHT22;29629;52.532;13.352;2023-04-29T13:01:58;15.20;99.90
41262;DHT22;29629;52.532;13.352;2023-04-29T13:04:24;15.20;99.90
41262;DHT22;29629;52.532;13.352;2023-04-29T13:06:52;15.40;99.90
41262;DHT22;29629;52.532;13.352;2023-04-29T13:09:24;15.50;99.90
41262;DHT22;29629;52.532;13.352;2023-04-29T13:11:51;15.60;99.90
41262;DHT22;29629;52.532;13.352;2023-04-29T13:14:18;15.60;99.90
41262;DHT22;29629;52.532;13.352;2023-04-29T13:16:49;15.60;99.90
41262;DHT22;29629;52.532;13.352;2023-04-29T13:19:16;15.60;99.90
41262;DHT22;29629;52.532;13.352;2023-04-29T13:21:43;15.60;99.90
41262;DHT22;29629;52.532;13.352;2023-04-29T13:24:11;15.50;99.90
41262;DHT22;29629;52.532;13.352;2023-04-29T13:26:38;15.60;99.90
41262;DHT22;29629;52.532;13.352;2023-04-29T13:29:05;15.60;99.90
41262;DHT22;29629;52.532;13.352;2023-04-29T13:31:32;15.50;99.90
41262;DHT22;29629;52.532;13.352;2023-04-29T13:34:00;15.50;99.90
41262;DHT22;29629;52.532;13.352;2023-04-29T13:36:27;15.60;99.90
41262;DHT22;29629;52.532;13.352;2023-04-29T13:38:54;15.70;99.90
41262;DHT22;29629;52.532;13.352;2023-04-29T13:41:21;15.90;99.90
41262;DHT22;29629;52.532;13.352;2023-04-29T13:43:48;16.00;99.90
41262;DHT22;29629;52.532;13.352;2023-04-29T13:46:15;16.10;99.90
41262;DHT22;29629;52.532;13.352;2023-04-29T13:48:42;16.20;99.90
41262;DHT22;29629;52.532;13.352;2023-04-29T13:51:10;16.40;99.90
41262;DHT22;29629;52.532;13.352;2023-04-29T13:53:37;16.60;99.90
41262;DHT22;29629;52.532;13.352;2023-04-29T13:56:05;16.60;99.90
41262;DHT22;29629;52.532;13.352;2023-04-29T13:58:31;16.40;99.90
41262;DHT22;29629;52.532;13.352;2023-04-29T14:00:58;16.10;99.90
41262;DHT22;29629;52.532;13.352;2023-04-29T14:03:25;16.00;99.90
41262;DHT22;29629;52.532;13.352;2023-04-29T14:05:52;15.80;99.90
41262;DHT22;29629;52.532;13.352;2023-04-29T14:08:20;15.60;99.90
41262;DHT22;29629;52.532;13.352;2023-04-29T14:10:48;15.70;99.90
41262;DHT22;29629;52.532;13.352;2023-04-29T14:13:15;15.60;99.90
41262;DHT22;29629;52.532;13.352;2023-04-29T14:15:42;15.40;99.90
41262;DHT22;29629;52.532;13.352;2023-04-29T14:18:09;15.50;99.90
41262;DHT22;29629;52.532;13.352;2023-04-29T14:20:36;15.40;99.90
41262;DHT22;29629;52.532;13.352;2023-04-29T14:23:03;15.50;99.90
41262;DHT22;29629;52.532;13.352;2023-04-29T14:25:32;15.50;99.90
41262;DHT22;29629;52.532;13.352;2023-04-29T14:27:58;15.60;99.90
41262;DHT22;29629;52.532;13.352;2023-04-29T14:30:25;15.90;99.90
41262;DHT22;29629;52.532;13.352;2023-04-29T14:32:52;16.20;99.90
41262;DHT22;29629;52.532;13.352;2023-04-29T14:35:19;16.40;99.90
41262;DHT22;29629;52.532;13.352;2023-04-29T14:37:46;16.40;99.90
41262;DHT22;29629;52.532;13.352;2023-04-29T14:40:14;16.40;99.90
41262;DHT22;29629;52.532;13.352;2023-04-29T14:42:43;16.50;99.90
41262;DHT22;29629;52.532;13.352;2023-04-29T14:45:10;16.70;99.90
41262;DHT22;29629;52.532;13.352;2023-04-29T14:47:37;16.70;99.90
41262;DHT22;29629;52.532;13.352;2023-04-29T14:50:05;16.70;99.90
41262;DHT22;29629;52.532;13.352;2023-04-29T14:52:32;16.70;99.90
41262;DHT22;29629;52.532;13.352;2023-04-29T14:54:59;16.70;99.90
41262;DHT22;29629;52.532;13.352;2023-04-29T14:57:26;16.70;99.90
41262;DHT22;29629;52.532;13.352;2023-04-29T14:59:56;16.60;99.90
41262;DHT22;29629;52.532;13.352;2023-04-29T15:02:23;16.60;99.90
41262;DHT22;29629;52.532;13.352;2023-04-29T15:04:50;16.50;99.90
41262;DHT22;29629;52.532;13.352;2023-04-29T15:07:17;16.60;99.90
41262;DHT22;29629;52.532;13.352;2023-04-29T15:09:44;16.50;99.90
41262;DHT22;29629;52.532;13.352;2023-04-29T15:12:12;16.40;99.90
41262;DHT22;29629;52.532;13.352;2023-04-29T15:14:38;16.40;99.90
41262;DHT22;29629;52.532;13.352;2023-04-29T15:17:07;16.30;99.90
41262;DHT22;29629;52.532;13.352;2023-04-29T15:19:34;16.30;99.90
41262;DHT22;29629;52.532;13.352;2023-04-29T15:22:01;16.10;99.90
41262;DHT22;29629;52.532;13.352;2023-04-29T15:24:28;16.00;99.90
41262;DHT22;29629;52.532;13.352;2023-04-29T15:26:55;15.90;99.90